createdAt,value
2023-07-20T00:02:24.048Z,1.83
2023-07-20T00:04:51.818Z,1.15
2023-07-20T00:07:19.608Z,0.90
2023-07-20T00:09:47.356Z,1.55
2023-07-20T00:12:15.819Z,0.90
2023-07-20T00:14:43.775Z,1.35
2023-07-20T00:17:11.542Z,1.48
2023-07-20T00:19:40.744Z,0.98
2023-07-20T00:22:08.545Z,1.30
2023-07-20T00:24:36.300Z,1.70
2023-07-20T00:27:04.128Z,1.23
2023-07-20T00:29:31.982Z,1.00
2023-07-20T00:32:00.562Z,1.48
2023-07-20T00:34:28.325Z,1.60
2023-07-20T00:36:57.455Z,0.90
2023-07-20T00:39:25.214Z,1.42
2023-07-20T00:41:52.968Z,1.35
2023-07-20T00:44:20.743Z,1.15
2023-07-20T00:46:49.059Z,1.67
2023-07-20T00:49:17.420Z,1.38
2023-07-20T00:51:45.881Z,0.98
2023-07-20T00:54:15.032Z,0.80
2023-07-20T00:56:42.892Z,1.70
2023-07-20T00:59:11.747Z,1.17
2023-07-20T01:01:39.842Z,1.10
2023-07-20T01:04:07.860Z,1.00
2023-07-20T01:06:44.088Z,0.90
2023-07-20T01:09:19.066Z,1.08
2023-07-20T01:11:56.281Z,1.20
2023-07-20T01:14:26.337Z,0.82
2023-07-20T01:16:54.418Z,0.82
2023-07-20T01:19:22.499Z,1.77
2023-07-20T01:21:59.196Z,1.55
2023-07-20T01:24:58.775Z,1.55
2023-07-20T01:28:06.018Z,1.25
2023-07-20T01:30:57.753Z,1.25
2023-07-20T01:33:28.298Z,1.45
2023-07-20T01:35:59.665Z,1.48
2023-07-20T01:38:27.957Z,1.75
2023-07-20T01:40:56.269Z,2.13
2023-07-20T01:43:24.097Z,1.30
2023-07-20T01:45:51.842Z,1.27
2023-07-20T01:48:19.733Z,1.20
2023-07-20T01:50:49.121Z,1.50
2023-07-20T01:53:16.996Z,1.35
2023-07-20T01:55:44.800Z,1.15
2023-07-20T01:58:12.534Z,1.27
2023-07-20T02:00:40.601Z,1.40
2023-07-20T02:03:08.511Z,0.88
2023-07-20T02:05:36.324Z,1.40
2023-07-20T02:08:05.826Z,2.30
2023-07-20T02:10:33.582Z,1.23
2023-07-20T02:13:01.312Z,1.45
2023-07-20T02:15:29.725Z,1.20
2023-07-20T02:17:57.539Z,1.40
2023-07-20T02:20:25.312Z,1.50
2023-07-20T02:22:53.135Z,1.20
2023-07-20T02:25:22.709Z,1.27
2023-07-20T02:27:50.512Z,1.00
2023-07-20T02:30:18.787Z,1.02
2023-07-20T02:32:49.643Z,1.70
2023-07-20T02:35:17.963Z,2.30
2023-07-20T02:37:46.061Z,1.63
2023-07-20T02:40:14.008Z,1.40
2023-07-20T02:42:43.119Z,1.50
2023-07-20T02:45:11.416Z,1.35
2023-07-20T02:47:39.233Z,1.70
2023-07-20T02:50:10.094Z,1.20
2023-07-20T02:52:37.898Z,1.90
2023-07-20T02:55:06.311Z,1.00
2023-07-20T02:57:34.091Z,1.20
2023-07-20T03:00:05.138Z,1.15
2023-07-20T03:02:32.972Z,1.48
2023-07-20T03:05:01.748Z,1.52
2023-07-20T03:07:30.446Z,1.15
2023-07-20T03:09:58.258Z,1.42
2023-07-20T03:12:26.494Z,1.00
2023-07-20T03:14:55.198Z,1.52
2023-07-20T03:17:24.372Z,1.35
2023-07-20T03:19:52.144Z,1.27
2023-07-20T03:22:19.940Z,1.38
2023-07-20T03:24:47.833Z,1.50
2023-07-20T03:27:15.857Z,1.00
2023-07-20T03:29:43.632Z,1.33
2023-07-20T03:32:11.905Z,1.40
2023-07-20T03:34:41.033Z,1.65
2023-07-20T03:37:08.829Z,1.33
2023-07-20T03:39:36.544Z,1.60
2023-07-20T03:42:04.468Z,1.33
2023-07-20T03:44:32.866Z,1.40
2023-07-20T03:47:00.734Z,1.55
2023-07-20T03:49:28.539Z,1.50
2023-07-20T03:51:57.650Z,1.27
2023-07-20T03:54:25.501Z,1.73
2023-07-20T03:56:53.260Z,1.70
2023-07-20T03:59:21.081Z,1.75
2023-07-20T04:01:48.873Z,1.67
2023-07-20T04:04:18.527Z,2.50
2023-07-20T04:06:46.336Z,2.03
2023-07-20T04:09:15.451Z,2.22
2023-07-20T04:11:43.275Z,1.85
2023-07-20T04:14:11.033Z,1.80
2023-07-20T04:16:38.957Z,1.42
2023-07-20T04:19:06.891Z,2.10
2023-07-20T04:21:34.633Z,1.83
2023-07-20T04:24:02.371Z,1.50
2023-07-20T04:26:31.505Z,1.92
2023-07-20T04:29:00.382Z,2.05
2023-07-20T04:31:28.139Z,2.30
2023-07-20T04:33:55.881Z,1.85
2023-07-20T04:36:23.907Z,1.80
2023-07-20T04:38:51.925Z,1.95
2023-07-20T04:41:19.686Z,1.92
2023-07-20T04:43:49.664Z,2.08
2023-07-20T04:46:18.758Z,2.10
2023-07-20T04:48:46.696Z,1.90
2023-07-20T04:51:14.435Z,1.83
2023-07-20T04:53:42.351Z,1.75
2023-07-20T04:56:11.759Z,1.80
2023-07-20T04:58:39.543Z,2.20
2023-07-20T05:01:08.716Z,1.83
2023-07-20T05:03:36.520Z,2.25
2023-07-20T05:06:04.562Z,2.05
2023-07-20T05:08:32.285Z,2.13
2023-07-20T05:11:01.465Z,2.15
2023-07-20T05:13:29.284Z,2.00
2023-07-20T05:15:57.111Z,2.00
2023-07-20T05:18:26.460Z,2.22
2023-07-20T05:20:56.092Z,2.03
2023-07-20T05:23:23.988Z,2.40
2023-07-20T05:25:56.427Z,2.50
2023-07-20T05:28:24.333Z,2.17
2023-07-20T05:30:53.301Z,2.13
2023-07-20T05:33:21.415Z,1.70
2023-07-20T05:35:50.833Z,2.25
2023-07-20T05:38:18.697Z,2.83
2023-07-20T05:40:48.071Z,3.00
2023-07-20T05:43:16.188Z,2.55
2023-07-20T05:45:44.329Z,2.25
2023-07-20T05:48:14.107Z,2.35
2023-07-20T05:50:44.567Z,2.38
2023-07-20T05:53:13.948Z,2.20
2023-07-20T05:55:41.868Z,2.70
2023-07-20T05:58:09.798Z,2.45
2023-07-20T06:00:37.694Z,3.15
2023-07-20T06:03:05.530Z,2.42
2023-07-20T06:05:33.422Z,2.35
2023-07-20T06:08:01.612Z,2.20
2023-07-20T06:10:30.951Z,2.47
2023-07-20T06:12:58.757Z,2.05
2023-07-20T06:15:27.866Z,2.33
2023-07-20T06:17:56.817Z,1.92
2023-07-20T06:20:24.704Z,2.00
2023-07-20T06:22:52.822Z,2.08
2023-07-20T06:25:21.805Z,2.58
2023-07-20T06:27:51.777Z,1.85
2023-07-20T06:30:19.698Z,2.90
2023-07-20T06:32:47.764Z,1.88
2023-07-20T06:35:16.405Z,1.95
2023-07-20T06:37:44.220Z,1.73
2023-07-20T06:45:15.901Z,2.45
2023-07-20T06:47:43.768Z,1.90
2023-07-20T06:50:17.270Z,2.20
2023-07-20T06:52:47.553Z,2.58
2023-07-20T06:55:15.946Z,1.83
2023-07-20T06:57:46.795Z,2.03
2023-07-20T07:00:18.661Z,2.13
2023-07-20T07:02:48.781Z,2.05
2023-07-20T07:05:20.919Z,1.80
2023-07-20T07:07:50.123Z,1.60
2023-07-20T07:10:18.067Z,2.40
2023-07-20T07:12:45.860Z,1.63
2023-07-20T07:15:13.628Z,1.63
2023-07-20T07:17:44.625Z,1.48
2023-07-20T07:20:20.981Z,1.90
2023-07-20T07:25:23.856Z,1.77
2023-07-20T07:27:53.222Z,1.58
2023-07-20T07:30:21.299Z,2.08
2023-07-20T07:32:50.726Z,1.95
2023-07-20T07:35:18.543Z,1.98
2023-07-20T07:38:03.202Z,2.08
2023-07-20T07:40:34.841Z,2.17
2023-07-20T07:43:02.700Z,1.88
2023-07-20T07:45:30.689Z,1.73
2023-07-20T07:47:59.862Z,1.88
2023-07-20T07:50:28.374Z,1.77
2023-07-20T07:52:56.523Z,1.92
2023-07-20T07:55:24.267Z,2.00
2023-07-20T07:57:52.110Z,1.35
2023-07-20T08:00:21.006Z,2.03
2023-07-20T08:02:49.215Z,1.73
2023-07-20T08:05:18.973Z,1.38
2023-07-20T08:07:47.205Z,1.33
2023-07-20T08:10:14.955Z,1.67
2023-07-20T08:12:42.750Z,1.70
2023-07-20T08:15:13.465Z,1.27
2023-07-20T08:17:41.373Z,1.63
2023-07-20T08:20:13.059Z,1.60
2023-07-20T08:22:42.387Z,1.85
2023-07-20T08:25:11.172Z,1.33
2023-07-20T08:27:39.179Z,1.67
2023-07-20T08:30:09.028Z,1.60
2023-07-20T08:32:36.830Z,1.42
2023-07-20T08:35:05.043Z,2.15
2023-07-20T08:37:32.929Z,1.42
2023-07-20T08:40:02.321Z,1.30
2023-07-20T08:42:30.198Z,1.30
2023-07-20T08:44:59.517Z,1.50
2023-07-20T08:47:28.466Z,1.20
2023-07-20T08:49:57.848Z,1.17
2023-07-20T08:52:25.695Z,2.58
2023-07-20T08:54:55.019Z,1.40
2023-07-20T08:57:24.816Z,1.88
2023-07-20T08:59:54.691Z,1.73
2023-07-20T09:02:28.561Z,1.90
2023-07-20T09:04:56.418Z,1.45
2023-07-20T09:07:25.257Z,1.70
2023-07-20T09:09:53.321Z,1.42
2023-07-20T09:12:21.549Z,1.55
2023-07-20T09:14:51.730Z,1.20
2023-07-20T09:17:20.561Z,1.48
2023-07-20T09:19:49.366Z,2.17
2023-07-20T09:22:18.489Z,1.58
2023-07-20T09:24:46.562Z,1.40
2023-07-20T09:27:14.611Z,1.52
2023-07-20T09:29:50.818Z,1.27
2023-07-20T09:34:53.816Z,1.15
2023-07-20T09:37:25.728Z,1.50
2023-07-20T09:44:58.883Z,1.63
2023-07-20T09:47:28.718Z,1.60
2023-07-20T09:55:04.789Z,1.33
2023-07-20T09:57:34.762Z,1.20
2023-07-20T10:02:44.661Z,1.98
2023-07-20T10:05:14.202Z,0.82
2023-07-20T10:07:46.420Z,0.85
2023-07-20T10:10:16.654Z,0.60
2023-07-20T10:12:45.222Z,2.08
2023-07-20T10:15:21.644Z,1.13
2023-07-20T10:17:59.741Z,0.60
2023-07-20T10:20:30.368Z,0.93
2023-07-20T10:22:59.256Z,0.63
2023-07-20T10:25:27.000Z,0.90
2023-07-20T10:27:55.657Z,1.00
2023-07-20T10:30:25.164Z,1.25
2023-07-20T10:32:54.559Z,1.00
2023-07-20T10:35:22.460Z,1.00
2023-07-20T10:38:02.925Z,1.00
2023-07-20T10:40:35.297Z,0.90
2023-07-20T10:43:05.509Z,0.70
2023-07-20T10:45:45.215Z,1.08
2023-07-20T10:48:17.387Z,1.10
2023-07-20T10:50:45.770Z,1.38
2023-07-20T10:53:15.378Z,1.00
2023-07-20T10:55:44.250Z,1.02
2023-07-20T10:58:13.382Z,0.90
2023-07-20T11:01:00.518Z,1.00
2023-07-20T11:03:35.755Z,1.05
2023-07-20T11:06:39.646Z,1.05
2023-07-20T11:09:12.902Z,1.25
2023-07-20T11:11:41.449Z,0.90
2023-07-20T11:14:10.791Z,0.85
2023-07-20T11:16:45.469Z,1.00
2023-07-20T11:20:22.962Z,0.80
2023-07-20T11:22:08.975Z,1.00
2023-07-20T11:24:37.022Z,1.15
2023-07-20T11:27:05.305Z,0.80
2023-07-20T11:29:34.456Z,0.65
2023-07-20T11:32:05.987Z,0.85
2023-07-20T11:34:35.862Z,0.63
2023-07-20T11:39:34.509Z,0.88
2023-07-20T11:42:02.310Z,1.20
2023-07-20T11:44:31.690Z,0.85
2023-07-20T11:47:05.902Z,0.73
2023-07-20T11:49:37.862Z,0.70
2023-07-20T11:52:06.521Z,0.85
2023-07-20T11:54:35.854Z,1.25
2023-07-20T11:57:03.795Z,0.75
2023-07-20T11:59:32.316Z,1.02
2023-07-20T12:02:03.572Z,1.00
2023-07-20T12:04:33.649Z,0.63
2023-07-20T12:07:01.760Z,1.00
2023-07-20T12:09:41.690Z,0.85
2023-07-20T12:12:14.282Z,0.60
2023-07-20T12:14:42.204Z,0.70
2023-07-20T12:17:10.981Z,0.70
2023-07-20T12:19:41.648Z,1.00
2023-07-20T12:22:09.976Z,0.75
2023-07-20T12:24:37.854Z,0.82
2023-07-20T12:27:06.477Z,1.00
2023-07-20T12:29:37.507Z,0.88
2023-07-20T12:32:07.230Z,0.73
2023-07-20T12:34:35.040Z,1.10
2023-07-20T12:37:06.883Z,1.55
2023-07-20T12:39:35.044Z,0.97
2023-07-20T12:42:02.849Z,1.45
2023-07-20T12:44:30.555Z,0.73
2023-07-20T12:46:58.618Z,1.20
2023-07-20T12:49:26.388Z,1.00
2023-07-20T12:51:54.214Z,1.33
2023-07-20T12:54:23.411Z,0.90
2023-07-20T12:59:22.386Z,1.20
2023-07-20T13:01:50.139Z,1.27
2023-07-20T13:04:17.959Z,1.00
2023-07-20T13:06:46.937Z,0.77
2023-07-20T13:09:14.680Z,1.33
2023-07-20T13:11:44.195Z,1.02
2023-07-20T13:14:12.900Z,1.10
2023-07-20T13:16:40.843Z,0.90
2023-07-20T13:19:08.620Z,0.98
2023-07-20T13:21:37.828Z,1.13
2023-07-20T13:24:06.755Z,0.95
2023-07-20T13:26:36.645Z,1.05
2023-07-20T13:29:06.043Z,0.88
2023-07-20T13:31:35.510Z,0.80
2023-07-20T13:34:04.283Z,0.95
2023-07-20T13:36:32.217Z,0.93
2023-07-20T13:39:00.756Z,1.10
2023-07-20T13:41:30.156Z,1.10
2023-07-20T13:43:58.725Z,0.75
2023-07-20T13:48:59.026Z,1.13
2023-07-20T13:51:28.149Z,0.85
2023-07-20T13:53:56.316Z,1.23
2023-07-20T13:56:24.073Z,0.80
2023-07-20T13:58:51.848Z,0.70
2023-07-20T14:03:54.106Z,0.80
2023-07-20T14:06:24.837Z,0.80
2023-07-20T14:08:54.398Z,0.60
2023-07-20T14:13:54.071Z,1.00
2023-07-20T14:16:21.922Z,0.80
2023-07-20T14:18:50.233Z,0.70
2023-07-20T14:21:22.226Z,0.70
2023-07-20T14:23:53.968Z,0.60
2023-07-20T14:26:22.974Z,0.88
2023-07-20T14:28:51.035Z,1.50
2023-07-20T14:31:20.019Z,0.73
2023-07-20T14:33:47.940Z,0.70
2023-07-20T14:36:15.777Z,0.93
2023-07-20T14:38:44.858Z,0.77
2023-07-20T14:41:13.286Z,0.57
2023-07-20T14:43:41.136Z,1.33
2023-07-20T14:46:08.975Z,0.98
2023-07-20T14:48:36.756Z,1.00
2023-07-20T14:51:05.688Z,0.93
2023-07-20T14:53:37.029Z,0.77
2023-07-20T14:56:06.606Z,0.80
2023-07-20T14:58:35.573Z,0.90
2023-07-20T15:01:04.141Z,0.93
2023-07-20T15:03:32.980Z,1.27
2023-07-20T15:06:00.956Z,0.60
2023-07-20T15:08:29.189Z,0.70
2023-07-20T15:10:57.373Z,0.77
2023-07-20T15:13:26.885Z,0.90
2023-07-20T15:15:54.742Z,1.23
2023-07-20T15:18:33.730Z,1.17
2023-07-20T15:21:09.503Z,0.75
2023-07-20T15:23:37.232Z,0.85
2023-07-20T15:26:04.988Z,0.88
2023-07-20T15:28:34.157Z,0.93
2023-07-20T15:31:02.894Z,1.00
2023-07-20T15:33:30.835Z,0.98
2023-07-20T15:35:58.627Z,1.10
2023-07-20T15:38:27.118Z,0.80
2023-07-20T15:40:55.210Z,0.70
2023-07-20T15:43:23.437Z,0.80
2023-07-20T15:45:52.985Z,0.95
2023-07-20T15:48:21.069Z,0.80
2023-07-20T15:50:48.973Z,0.88
2023-07-20T15:53:16.824Z,0.95
2023-07-20T15:55:44.577Z,0.90
2023-07-20T15:58:12.332Z,1.58
2023-07-20T16:00:40.089Z,1.00
2023-07-20T16:03:12.051Z,1.10
2023-07-20T16:05:39.969Z,1.13
2023-07-20T16:08:09.087Z,1.05
2023-07-20T16:10:37.072Z,0.95
2023-07-20T16:13:04.947Z,0.98
2023-07-20T16:18:03.411Z,1.38
2023-07-20T16:20:32.526Z,0.70
2023-07-20T16:23:00.325Z,1.40
2023-07-20T16:25:28.046Z,0.75
2023-07-20T16:27:55.995Z,1.15
2023-07-20T16:30:23.746Z,1.20
2023-07-20T16:32:52.149Z,0.88
2023-07-20T16:35:23.190Z,1.10
2023-07-20T16:38:14.047Z,1.33
2023-07-20T16:43:12.811Z,1.20
2023-07-20T16:45:40.672Z,1.10
2023-07-20T16:48:10.409Z,0.68
2023-07-20T16:50:38.281Z,0.85
2023-07-20T16:53:06.025Z,0.70
2023-07-20T16:55:35.180Z,1.02
2023-07-20T16:58:03.220Z,0.77
2023-07-20T17:00:31.085Z,1.50
2023-07-20T17:02:59.205Z,1.02
2023-07-20T17:05:27.112Z,0.60
2023-07-20T17:07:56.536Z,1.00
2023-07-20T17:10:25.109Z,1.27
2023-07-20T17:12:54.212Z,1.00
2023-07-20T17:15:22.785Z,1.30
2023-07-20T17:17:52.816Z,1.05
2023-07-20T17:22:52.577Z,1.17
2023-07-20T17:30:23.602Z,0.95
2023-07-20T17:32:52.224Z,0.90
2023-07-20T17:35:21.844Z,0.68
2023-07-20T17:45:23.876Z,0.90
2023-07-20T17:47:51.715Z,1.20
2023-07-20T17:50:19.496Z,1.05
2023-07-20T17:52:47.274Z,0.82
2023-07-20T17:55:15.119Z,0.80
2023-07-20T17:57:42.857Z,1.00
2023-07-20T18:02:45.243Z,0.77
2023-07-20T18:05:14.233Z,1.20
2023-07-20T18:07:42.257Z,0.77
2023-07-20T18:10:10.937Z,1.25
2023-07-20T18:12:38.848Z,1.17
2023-07-20T18:15:08.069Z,0.85
2023-07-20T18:17:37.305Z,0.80
2023-07-20T18:20:07.720Z,0.70
2023-07-20T18:22:35.715Z,1.40
2023-07-20T18:25:05.908Z,0.82
2023-07-20T18:27:34.152Z,1.20
2023-07-20T18:30:01.893Z,0.80
2023-07-20T18:32:29.663Z,1.00
2023-07-20T18:34:57.421Z,0.95
2023-07-20T18:37:26.646Z,1.40
2023-07-20T18:39:54.742Z,0.90
2023-07-20T18:42:22.739Z,0.80
2023-07-20T18:44:51.931Z,1.08
2023-07-20T18:47:19.717Z,1.25
2023-07-20T18:49:47.562Z,1.13
2023-07-20T18:52:15.299Z,1.90
2023-07-20T18:54:44.546Z,2.90
2023-07-20T18:57:12.348Z,2.05
2023-07-20T18:59:42.157Z,2.20
2023-07-20T19:02:09.973Z,1.77
2023-07-20T19:04:38.397Z,1.50
2023-07-20T19:07:07.254Z,2.00
2023-07-20T19:09:35.063Z,2.65
2023-07-20T19:12:04.479Z,2.55
2023-07-20T19:14:32.273Z,1.70
2023-07-20T19:17:00.163Z,1.15
2023-07-20T19:19:29.960Z,2.00
2023-07-20T19:21:57.707Z,1.15
2023-07-20T19:24:25.817Z,1.25
2023-07-20T19:26:53.873Z,0.93
2023-07-20T19:29:23.008Z,1.13
2023-07-20T19:31:50.855Z,1.40
2023-07-20T19:34:18.691Z,0.95
2023-07-20T19:36:46.441Z,1.40
2023-07-20T19:39:14.210Z,0.98
2023-07-20T19:41:41.981Z,1.20
2023-07-20T19:44:10.565Z,1.30
2023-07-20T19:46:40.457Z,1.35
2023-07-20T19:49:08.416Z,1.10
2023-07-20T19:51:37.870Z,1.08
2023-07-20T19:56:37.694Z,1.20
2023-07-20T19:59:06.065Z,1.00
2023-07-20T20:06:36.863Z,1.10
2023-07-20T20:09:05.652Z,1.05
2023-07-20T20:11:33.440Z,1.88
2023-07-20T20:14:01.400Z,0.98
2023-07-20T20:16:29.430Z,0.90
2023-07-20T20:18:57.274Z,1.20
2023-07-20T20:21:26.407Z,1.23
2023-07-20T20:23:54.135Z,1.00
2023-07-20T20:26:21.948Z,0.80
2023-07-20T20:28:49.717Z,1.10
2023-07-20T20:31:17.548Z,1.00
2023-07-20T20:33:45.876Z,1.02
2023-07-20T20:36:14.006Z,1.10
2023-07-20T20:38:43.110Z,1.23
2023-07-20T20:41:10.816Z,0.73
2023-07-20T20:43:38.569Z,1.10
2023-07-20T20:46:10.533Z,0.70
2023-07-20T20:48:38.744Z,0.80
2023-07-20T20:51:06.797Z,1.58
2023-07-20T20:53:34.595Z,1.60
2023-07-20T20:56:04.313Z,0.52
2023-07-20T20:58:32.107Z,0.82
2023-07-20T21:01:01.809Z,1.02
2023-07-20T21:03:30.324Z,0.80
2023-07-20T21:05:58.678Z,1.05
2023-07-20T21:08:28.455Z,1.10
2023-07-20T21:10:59.749Z,1.00
2023-07-20T21:13:28.892Z,1.00
2023-07-20T21:15:57.412Z,0.88
2023-07-20T21:18:25.312Z,0.98
2023-07-20T21:20:53.156Z,1.25
2023-07-20T21:23:21.104Z,1.15
2023-07-20T21:25:49.596Z,1.20
2023-07-20T21:28:18.510Z,1.15
2023-07-20T21:31:01.655Z,1.13
2023-07-20T21:33:29.463Z,0.88
2023-07-20T21:35:57.263Z,1.00
2023-07-20T21:38:25.159Z,0.85
2023-07-20T21:40:52.903Z,1.13
2023-07-20T21:43:20.636Z,0.77
2023-07-20T21:45:49.790Z,0.95
2023-07-20T21:48:17.688Z,0.80
2023-07-20T21:50:49.308Z,0.73
2023-07-20T21:53:18.252Z,0.95
2023-07-20T21:55:48.954Z,3.17
2023-07-20T21:58:18.921Z,0.75
2023-07-20T22:00:51.686Z,0.73
2023-07-20T22:03:22.319Z,0.80
2023-07-20T22:05:53.083Z,1.00
2023-07-20T22:08:21.270Z,0.70
2023-07-20T22:10:52.956Z,0.88
2023-07-20T22:13:21.632Z,0.70
2023-07-20T22:15:51.648Z,0.70
2023-07-20T22:18:35.451Z,0.82
2023-07-20T22:21:05.751Z,1.00
2023-07-20T22:23:35.251Z,1.10
2023-07-20T22:26:03.122Z,0.70
2023-07-20T22:28:30.943Z,0.93
2023-07-20T22:30:59.933Z,1.17
2023-07-20T22:33:29.369Z,1.05
2023-07-20T22:35:57.173Z,1.17
2023-07-20T22:38:25.255Z,0.90
2023-07-20T22:40:53.184Z,0.82
2023-07-20T22:43:25.939Z,0.95
2023-07-20T22:48:24.847Z,1.20
2023-07-20T22:50:54.339Z,0.73
2023-07-20T22:53:23.101Z,1.08
2023-07-20T22:55:51.127Z,0.82
2023-07-20T22:58:19.439Z,0.85
2023-07-20T23:00:47.550Z,0.80
2023-07-20T23:03:15.472Z,1.17
2023-07-20T23:05:43.533Z,1.30
2023-07-20T23:08:13.123Z,1.13
2023-07-20T23:10:41.011Z,1.10
2023-07-20T23:13:08.836Z,1.50
2023-07-20T23:15:36.729Z,1.00
2023-07-20T23:18:04.811Z,1.15
2023-07-20T23:20:32.685Z,0.90
2023-07-20T23:23:00.544Z,1.38
2023-07-20T23:25:29.728Z,1.20
2023-07-20T23:27:57.699Z,1.20
2023-07-20T23:30:25.522Z,1.13
2023-07-20T23:32:54.003Z,1.00
2023-07-20T23:35:22.497Z,0.70
2023-07-20T23:37:51.535Z,1.08
2023-07-20T23:40:19.855Z,1.33
2023-07-20T23:42:49.265Z,1.40
2023-07-20T23:45:17.116Z,1.23
2023-07-20T23:47:45.062Z,1.35
2023-07-20T23:50:14.189Z,1.38
2023-07-20T23:52:42.064Z,1.20
2023-07-20T23:55:10.763Z,1.10
2023-07-20T23:57:39.255Z,1.55
